Time;durP1;ratioP1;P1;durP2;ratioP2;P2;SDS_P1;SDS_P2;PMS_P1;PMS_P2;Temp;Humidity;BMP_temperature;BMP_pressure;BME280_temperature;BME280_humidity;BME280_pressure;Samples;Min_cycle;Max_cycle;Signal;HPM_P1;HPM_P2
2022/03/30 00:00:41;;;;;;;8.57;1.53;;;24.90;99.90;;;;;;5073716;28;20270;-70
2022/03/30 00:03:09;;;;;;;10.33;2.20;;;24.80;99.90;;;;;;5073625;28;20180;-70
2022/03/30 00:05:38;;;;;;;9.67;2.10;;;24.80;99.90;;;;;;5073752;28;20259;-69
2022/03/30 00:08:07;;;;;;;5.57;1.57;;;24.20;99.90;;;;;;5073623;28;20180;-69
2022/03/30 00:10:35;;;;;;;7.90;1.77;;;24.10;99.90;;;;;;5072182;28;20171;-69
2022/03/30 00:13:04;;;;;;;6.53;1.83;;;24.00;99.90;;;;;;5073445;28;20183;-70
2022/03/30 00:15:35;;;;;;;7.43;1.70;;;23.90;99.90;;;;;;5073269;28;20234;-69
2022/03/30 00:18:03;;;;;;;11.00;1.60;;;24.10;99.90;;;;;;5073449;28;20211;-71
2022/03/30 00:20:31;;;;;;;4.93;1.60;;;24.00;99.90;;;;;;5073412;28;20176;-69
2022/03/30 00:22:59;;;;;;;4.67;1.60;;;23.80;99.90;;;;;;5073510;28;20171;-70
2022/03/30 00:25:27;;;;;;;7.97;1.60;;;23.80;99.90;;;;;;5073671;28;20584;-70
2022/03/30 00:27:54;;;;;;;7.23;1.47;;;24.40;99.90;;;;;;5073468;28;20176;-70
2022/03/30 00:30:23;;;;;;;9.63;2.23;;;24.70;99.90;;;;;;5071839;28;20626;-70
2022/03/30 00:32:54;;;;;;;10.63;1.83;;;25.40;99.90;;;;;;5073261;28;20582;-69
2022/03/30 00:35:22;;;;;;;7.97;1.57;;;25.30;99.90;;;;;;5073211;28;20180;-69
2022/03/30 00:37:50;;;;;;;9.30;1.67;;;24.80;99.90;;;;;;5073118;28;20218;-71
2022/03/30 00:40:18;;;;;;;9.57;1.80;;;24.80;99.90;;;;;;5070826;28;20180;-69
2022/03/30 00:42:46;;;;;;;4.37;1.40;;;24.40;99.90;;;;;;5068630;28;20263;-70
2022/03/30 00:45:18;;;;;;;11.97;2.23;;;24.40;99.90;;;;;;5069983;28;20180;-69
2022/03/30 00:47:46;;;;;;;8.33;1.80;;;24.60;99.90;;;;;;5071034;28;20186;-71
2022/03/30 00:50:17;;;;;;;10.30;2.00;;;25.00;99.90;;;;;;5070366;28;20184;-70
2022/03/30 00:52:47;;;;;;;7.90;2.10;;;24.80;99.90;;;;;;5070580;28;20341;-70
2022/03/30 00:55:17;;;;;;;10.60;1.63;;;25.20;99.90;;;;;;5070443;28;20211;-70
2022/03/30 00:57:46;;;;;;;15.20;1.80;;;25.30;99.90;;;;;;5070842;28;20226;-70
2022/03/30 01:00:16;;;;;;;7.37;1.90;;;25.10;99.90;;;;;;5071551;28;20784;-69
2022/03/30 01:02:48;;;;;;;11.53;1.97;;;25.30;99.90;;;;;;5070463;28;20317;-70
2022/03/30 01:05:19;;;;;;;9.07;1.70;;;25.90;99.90;;;;;;5071731;28;20178;-70
2022/03/30 01:07:47;;;;;;;7.47;1.63;;;26.40;99.90;;;;;;5071201;28;20215;-70
2022/03/30 01:10:18;;;;;;;8.23;1.80;;;26.70;99.90;;;;;;5071190;28;20192;-69
2022/03/30 01:12:47;;;;;;;10.27;1.70;;;26.20;99.90;;;;;;5071233;28;20271;-70
2022/03/30 01:15:15;;;;;;;10.47;1.40;;;25.50;99.90;;;;;;5070250;28;20258;-68
2022/03/30 01:17:43;;;;;;;8.57;2.03;;;25.10;99.90;;;;;;5070973;28;20212;-69
2022/03/30 01:20:21;;;;;;;9.47;1.90;;;24.70;99.90;;;;;;5071148;28;20195;-71
2022/03/30 01:22:50;;;;;;;11.40;2.13;;;24.40;99.90;;;;;;5070298;28;20184;-71
2022/03/30 01:25:18;;;;;;;8.23;2.00;;;24.20;99.90;;;;;;5070712;28;20180;-71
2022/03/30 01:27:46;;;;;;;9.93;2.10;;;24.30;99.90;;;;;;5071476;28;20234;-71
2022/03/30 01:33:07;;;;;;;9.93;2.13;;;25.00;99.90;;;;;;5071385;28;20198;-71
2022/03/30 01:35:38;;;;;;;9.67;2.43;;;25.50;99.90;;;;;;5070925;28;20241;-70
2022/03/30 01:38:06;;;;;;;10.63;2.37;;;25.40;99.90;;;;;;5070650;28;20208;-70
2022/03/30 01:40:36;;;;;;;9.57;1.80;;;25.40;99.90;;;;;;5075030;28;20551;-71
2022/03/30 01:43:08;;;;;;;15.70;2.27;;;25.00;99.90;;;;;;5074580;28;20261;-70
2022/03/30 01:45:35;;;;;;;10.67;2.07;;;24.20;99.90;;;;;;5078103;28;20279;-68
2022/03/30 01:48:06;;;;;;;10.63;1.97;;;23.70;99.90;;;;;;5074852;28;20179;-69
2022/03/30 01:50:38;;;;;;;6.73;2.00;;;23.60;99.90;;;;;;5075118;28;20179;-70
2022/03/30 01:53:06;;;;;;;8.43;2.40;;;23.90;99.90;;;;;;5093742;28;20278;-69
2022/03/30 01:55:36;;;;;;;12.53;2.40;;;24.10;99.90;;;;;;5095057;28;20171;-70
2022/03/30 01:58:05;;;;;;;6.27;2.10;;;24.40;99.90;;;;;;5095070;28;20215;-70
2022/03/30 02:00:33;;;;;;;8.33;2.30;;;24.70;99.90;;;;;;5081811;28;20642;-69
2022/03/30 02:03:00;;;;;;;11.33;2.67;;;24.70;99.90;;;;;;5074793;28;20176;-68
2022/03/30 02:05:31;;;;;;;9.40;2.47;;;24.60;99.90;;;;;;5074922;28;20257;-68
2022/03/30 02:07:58;;;;;;;13.30;2.83;;;24.70;99.90;;;;;;5074637;28;20615;-69
2022/03/30 02:10:28;;;;;;;15.97;2.63;;;24.70;99.90;;;;;;5074612;28;20533;-69
2022/03/30 02:12:58;;;;;;;8.07;1.93;;;24.80;99.90;;;;;;5074761;28;20180;-69
2022/03/30 02:15:26;;;;;;;10.43;2.07;;;24.80;99.90;;;;;;5074282;28;20574;-69
2022/03/30 02:17:54;;;;;;;13.20;2.10;;;24.90;99.90;;;;;;5074538;28;20264;-69
2022/03/30 02:20:22;;;;;;;10.63;2.30;;;25.00;99.90;;;;;;5074502;28;20180;-69
2022/03/30 02:22:49;;;;;;;7.17;2.13;;;25.00;99.90;;;;;;5074007;28;20190;-70
2022/03/30 02:25:17;;;;;;;10.47;2.17;;;25.60;99.90;;;;;;5075240;28;20267;-69
2022/03/30 02:27:45;;;;;;;6.93;2.37;;;26.50;99.90;;;;;;5075689;28;20210;-68
2022/03/30 02:30:13;;;;;;;7.83;1.83;;;27.00;99.90;;;;;;5073083;28;20243;-69
2022/03/30 02:32:44;;;;;;;9.73;2.00;;;26.30;99.90;;;;;;5076494;28;20172;-69
2022/03/30 02:35:13;;;;;;;7.80;1.83;;;26.00;99.90;;;;;;5073463;28;20187;-68
2022/03/30 02:37:41;;;;;;;8.87;2.07;;;25.70;99.90;;;;;;5076620;28;20695;-69
2022/03/30 02:40:12;;;;;;;9.67;1.80;;;25.20;99.90;;;;;;5074687;28;20629;-69
2022/03/30 02:42:40;;;;;;;7.80;2.10;;;25.00;99.90;;;;;;5074173;28;20180;-69
2022/03/30 02:45:08;;;;;;;8.80;1.93;;;25.00;99.90;;;;;;5073925;28;20184;-69
2022/03/30 02:50:24;;;;;;;10.53;2.10;;;25.00;99.90;;;;;;5072411;28;20198;-69
2022/03/30 02:52:52;;;;;;;7.20;1.50;;;25.00;99.90;;;;;;5073946;28;20281;-70
2022/03/30 02:55:20;;;;;;;7.70;1.70;;;25.20;99.90;;;;;;5073636;28;20251;-69
2022/03/30 02:57:48;;;;;;;5.63;1.53;;;25.70;99.90;;;;;;5073650;28;20632;-69
2022/03/30 03:00:19;;;;;;;8.63;1.87;;;26.40;99.90;;;;;;5073527;28;20168;-69
2022/03/30 03:02:46;;;;;;;6.47;1.83;;;26.70;99.90;;;;;;5073783;28;20187;-69
2022/03/30 03:05:14;;;;;;;5.13;1.70;;;27.10;99.90;;;;;;5073609;28;20641;-69
2022/03/30 03:07:42;;;;;;;4.87;1.70;;;26.90;99.90;;;;;;5073671;28;20175;-69
2022/03/30 03:10:13;;;;;;;5.73;0.93;;;26.80;99.90;;;;;;5073392;28;20175;-69
2022/03/30 03:12:41;;;;;;;6.13;1.67;;;27.00;99.90;;;;;;5073500;28;20176;-69
2022/03/30 03:15:09;;;;;;;5.57;1.50;;;26.90;99.90;;;;;;5073168;28;20223;-69
2022/03/30 03:17:37;;;;;;;5.73;0.90;;;27.30;99.90;;;;;;5073315;28;20351;-70
2022/03/30 03:20:05;;;;;;;2.73;1.33;;;27.60;99.90;;;;;;5073205;28;20180;-70
2022/03/30 03:22:37;;;;;;;3.27;1.00;;;28.30;99.90;;;;;;5072897;28;20274;-70
2022/03/30 03:25:05;;;;;;;4.23;1.47;;;28.50;99.90;;;;;;5072984;28;20179;-68
2022/03/30 03:27:33;;;;;;;3.30;0.80;;;28.30;99.90;;;;;;5073066;28;20182;-69
2022/03/30 03:30:01;;;;;;;3.63;0.90;;;27.90;99.90;;;;;;5072918;28;20180;-68
2022/03/30 03:32:29;;;;;;;2.27;0.90;;;27.70;99.90;;;;;;5073059;28;20176;-68
2022/03/30 03:34:57;;;;;;;3.07;1.37;;;27.70;99.90;;;;;;5072991;28;20187;-68
2022/03/30 03:37:25;;;;;;;4.30;1.00;;;27.10;99.90;;;;;;5072660;28;20214;-69
2022/03/30 03:39:53;;;;;;;1.73;0.73;;;26.60;99.90;;;;;;5072423;28;20180;-70
2022/03/30 03:42:23;;;;;;;3.67;0.80;;;26.30;99.90;;;;;;5071534;28;20188;-70
2022/03/30 03:44:54;;;;;;;2.00;0.70;;;26.00;99.90;;;;;;5070538;28;20196;-70
2022/03/30 03:47:22;;;;;;;2.37;0.80;;;26.00;99.90;;;;;;5070238;28;20331;-70
2022/03/30 03:49:50;;;;;;;5.30;1.00;;;25.80;99.90;;;;;;5070679;28;20202;-70
2022/03/30 03:52:17;;;;;;;5.53;0.90;;;25.70;99.90;;;;;;5070529;28;20180;-71
2022/03/30 03:54:45;;;;;;;2.27;0.80;;;25.80;99.90;;;;;;5069720;28;20180;-71
2022/03/30 03:57:13;;;;;;;4.03;1.27;;;25.70;99.90;;;;;;5071497;28;20206;-71
2022/03/30 03:59:41;;;;;;;6.37;1.07;;;25.70;99.90;;;;;;5072485;28;20183;-70
2022/03/30 04:02:12;;;;;;;4.87;1.03;;;25.90;99.90;;;;;;5070436;28;20232;-70
2022/03/30 04:04:40;;;;;;;3.63;1.20;;;26.00;99.90;;;;;;5072516;28;20186;-71
2022/03/30 04:07:11;;;;;;;3.33;1.07;;;26.00;99.90;;;;;;5072208;28;20274;-70
2022/03/30 04:09:39;;;;;;;5.43;1.43;;;25.90;99.90;;;;;;5071851;28;20186;-71
2022/03/30 04:12:07;;;;;;;2.83;0.90;;;25.80;99.90;;;;;;5072344;28;20194;-70
2022/03/30 04:14:35;;;;;;;3.03;1.20;;;25.70;99.90;;;;;;5063812;28;20680;-69
2022/03/30 04:17:03;;;;;;;2.20;0.80;;;25.80;99.90;;;;;;5071859;28;20184;-70
2022/03/30 04:19:31;;;;;;;4.63;1.20;;;26.50;99.90;;;;;;5072490;28;20569;-70
2022/03/30 04:22:01;;;;;;;2.13;0.90;;;27.10;99.90;;;;;;5071984;28;20259;-70
2022/03/30 04:24:29;;;;;;;2.70;0.70;;;26.80;99.90;;;;;;5071875;28;20248;-71
2022/03/30 04:26:57;;;;;;;4.50;1.00;;;27.20;99.90;;;;;;5071779;28;20180;-71
2022/03/30 04:29:28;;;;;;;3.83;0.70;;;27.40;99.90;;;;;;5071683;28;20532;-70
2022/03/30 04:31:56;;;;;;;3.30;0.90;;;27.30;99.90;;;;;;5071412;28;20176;-71
2022/03/30 04:34:24;;;;;;;2.43;0.87;;;27.20;99.90;;;;;;5071558;28;20180;-70
2022/03/30 04:36:52;;;;;;;2.20;0.90;;;27.00;99.90;;;;;;5071726;28;20188;-70
2022/03/30 04:39:19;;;;;;;2.73;0.70;;;26.90;99.90;;;;;;5071697;28;20195;-70
2022/03/30 04:41:47;;;;;;;4.10;0.73;;;26.80;99.90;;;;;;5071945;28;20180;-70
2022/03/30 04:44:15;;;;;;;2.67;0.93;;;26.70;99.90;;;;;;5071402;28;20657;-69
2022/03/30 04:46:43;;;;;;;2.60;0.80;;;26.40;99.90;;;;;;5070216;28;20214;-68
2022/03/30 04:49:11;;;;;;;3.10;1.13;;;26.20;99.90;;;;;;5072189;28;20207;-69
2022/03/30 04:51:38;;;;;;;1.33;0.50;;;26.10;99.90;;;;;;5072527;28;20187;-69
2022/03/30 04:54:10;;;;;;;1.87;0.63;;;25.70;99.90;;;;;;5071438;28;20649;-70
2022/03/30 04:56:38;;;;;;;2.30;0.93;;;25.30;99.90;;;;;;5071161;28;20196;-70
2022/03/30 04:59:05;;;;;;;4.07;1.10;;;25.10;99.90;;;;;;5071894;28;20207;-70
2022/03/30 05:01:33;;;;;;;1.27;0.67;;;24.90;99.90;;;;;;5071830;28;20313;-70
2022/03/30 05:04:01;;;;;;;3.50;0.93;;;24.70;99.90;;;;;;5070944;28;20645;-69
2022/03/30 05:06:29;;;;;;;1.27;0.60;;;24.80;99.90;;;;;;5071488;28;20168;-69
2022/03/30 05:08:56;;;;;;;2.43;0.80;;;24.70;99.90;;;;;;5071547;28;20641;-69
2022/03/30 05:11:24;;;;;;;1.73;1.00;;;24.60;99.90;;;;;;5071573;28;20195;-69
2022/03/30 05:13:55;;;;;;;1.77;0.80;;;24.50;99.90;;;;;;5073293;28;20753;-70
2022/03/30 05:16:23;;;;;;;2.77;1.40;;;24.40;99.90;;;;;;5075522;28;20233;-69
2022/03/30 05:18:50;;;;;;;2.40;1.00;;;24.40;99.90;;;;;;5076668;28;20223;-70
2022/03/30 05:21:18;;;;;;;2.40;1.10;;;24.40;99.90;;;;;;5077079;28;20230;-69
2022/03/30 05:23:49;;;;;;;3.30;1.20;;;24.20;99.90;;;;;;5076670;28;20279;-69
2022/03/30 05:26:17;;;;;;;2.13;1.20;;;24.40;99.90;;;;;;5075545;28;20176;-70
2022/03/30 05:28:47;;;;;;;3.60;1.20;;;24.70;99.90;;;;;;5076927;28;20172;-70
2022/03/30 05:31:15;;;;;;;4.97;1.40;;;24.80;99.90;;;;;;5076803;28;20255;-70
2022/03/30 05:33:43;;;;;;;3.00;1.07;;;24.90;99.90;;;;;;5075381;28;20175;-70
2022/03/30 05:36:12;;;;;;;4.27;1.43;;;24.90;99.90;;;;;;5076430;28;20193;-69
2022/03/30 05:38:40;;;;;;;2.57;1.00;;;24.80;99.90;;;;;;5076443;28;20239;-69
2022/03/30 05:41:08;;;;;;;5.53;1.40;;;24.90;99.90;;;;;;5076430;28;20172;-69
2022/03/30 05:43:38;;;;;;;3.20;1.77;;;24.80;99.90;;;;;;5076354;28;20586;-68
2022/03/30 05:46:06;;;;;;;3.77;1.33;;;24.50;99.90;;;;;;5076420;28;20172;-69
2022/03/30 05:48:34;;;;;;;3.80;1.47;;;24.60;99.90;;;;;;5076089;28;20211;-70
2022/03/30 05:51:05;;;;;;;2.00;1.30;;;24.60;99.90;;;;;;5076154;28;20180;-70
2022/03/30 05:53:36;;;;;;;6.30;1.60;;;24.70;99.90;;;;;;5076349;28;20185;-70
2022/03/30 05:56:05;;;;;;;3.97;1.30;;;24.60;99.90;;;;;;5076280;28;20255;-70
2022/03/30 05:58:32;;;;;;;7.03;1.57;;;24.70;99.90;;;;;;5076082;28;20212;-70
2022/03/30 06:01:00;;;;;;;2.73;1.27;;;24.90;99.90;;;;;;5076113;28;20203;-69
2022/03/30 06:03:28;;;;;;;6.90;1.67;;;25.30;99.90;;;;;;5075960;28;20180;-69
2022/03/30 06:09:21;;;;;;;4.93;1.33;;;25.30;99.90;;;;;;5075369;28;20187;-70
2022/03/30 06:11:49;;;;;;;5.50;1.83;;;25.00;99.90;;;;;;5075978;28;20749;-70
2022/03/30 06:14:17;;;;;;;7.63;1.60;;;25.20;99.90;;;;;;5074424;28;20232;-70
2022/03/30 06:16:45;;;;;;;5.17;1.60;;;25.10;99.90;;;;;;5075935;28;20183;-70
2022/03/30 06:19:14;;;;;;;4.13;1.60;;;24.90;99.90;;;;;;5075840;28;20636;-70
2022/03/30 06:21:42;;;;;;;5.90;1.50;;;24.70;99.90;;;;;;5075950;28;20348;-70
2022/03/30 06:24:13;;;;;;;3.57;1.10;;;24.40;99.90;;;;;;5075441;28;20186;-68
2022/03/30 06:26:42;;;;;;;2.63;1.00;;;24.20;99.90;;;;;;5075957;28;20267;-69
2022/03/30 06:29:12;;;;;;;1.67;0.80;;;24.00;99.90;;;;;;5075552;28;20178;-69
2022/03/30 06:31:41;;;;;;;3.57;0.93;;;23.80;99.90;;;;;;5075489;28;20176;-69
2022/03/30 06:34:08;;;;;;;2.23;0.90;;;23.70;99.90;;;;;;5075662;28;20255;-69
2022/03/30 06:36:38;;;;;;;5.23;1.20;;;23.70;99.90;;;;;;5075670;28;20227;-69
2022/03/30 06:39:06;;;;;;;1.07;0.70;;;23.30;99.90;;;;;;5075359;28;20223;-69
2022/03/30 06:41:39;;;;;;;2.50;1.23;;;22.90;99.90;;;;;;5075343;28;20171;-69
2022/03/30 06:44:06;;;;;;;1.03;0.70;;;22.50;99.90;;;;;;5075555;28;20178;-69
2022/03/30 06:46:38;;;;;;;1.67;0.90;;;22.30;99.90;;;;;;5075665;28;20262;-69
2022/03/30 06:49:07;;;;;;;1.17;0.80;;;22.10;99.90;;;;;;5075067;28;20186;-69
2022/03/30 06:51:35;;;;;;;1.30;0.87;;;22.00;99.90;;;;;;5075014;28;20251;-70
2022/03/30 06:54:03;;;;;;;1.00;0.67;;;21.90;99.90;;;;;;5075205;28;20210;-70
2022/03/30 06:56:31;;;;;;;1.03;0.80;;;21.80;99.90;;;;;;5075144;28;20654;-70
2022/03/30 06:58:59;;;;;;;5.40;0.90;;;21.80;99.90;;;;;;5075196;28;20231;-70
2022/03/30 07:01:27;;;;;;;1.30;0.83;;;21.80;99.90;;;;;;5075310;28;20175;-71
2022/03/30 07:03:55;;;;;;;1.30;0.80;;;21.80;99.90;;;;;;5075214;28;20199;-70
2022/03/30 07:06:23;;;;;;;1.30;1.00;;;21.70;99.90;;;;;;5075157;28;20172;-70
2022/03/30 07:11:39;;;;;;;1.87;0.93;;;21.60;99.90;;;;;;5075596;28;20311;-71
2022/03/30 07:14:10;;;;;;;2.13;1.00;;;21.50;99.90;;;;;;5074963;28;20229;-71
2022/03/30 07:16:38;;;;;;;1.00;0.80;;;21.50;99.90;;;;;;5074989;28;20213;-71
2022/03/30 07:19:06;;;;;;;4.10;0.87;;;21.30;99.90;;;;;;5074563;28;20222;-72
2022/03/30 07:21:33;;;;;;;1.57;0.70;;;21.30;99.90;;;;;;5074926;28;20214;-70
2022/03/30 07:24:01;;;;;;;0.73;0.73;;;21.20;99.90;;;;;;5074780;28;20207;-70
2022/03/30 07:26:29;;;;;;;2.13;0.87;;;21.20;99.90;;;;;;5075207;28;20622;-71
2022/03/30 07:28:57;;;;;;;1.53;0.87;;;21.20;99.90;;;;;;5074591;28;20174;-70
2022/03/30 07:31:24;;;;;;;1.10;0.90;;;21.20;99.90;;;;;;5074506;28;20211;-70
2022/03/30 07:33:52;;;;;;;2.27;1.17;;;21.20;99.90;;;;;;5074516;28;20171;-71
2022/03/30 07:36:23;;;;;;;1.83;0.80;;;21.20;99.90;;;;;;5073969;28;20176;-71
2022/03/30 07:38:51;;;;;;;1.53;0.90;;;21.10;99.90;;;;;;5074503;28;20321;-70
2022/03/30 07:41:22;;;;;;;3.70;1.53;;;21.10;99.90;;;;;;5074355;28;20183;-70
2022/03/30 07:43:50;;;;;;;2.20;1.10;;;21.10;99.90;;;;;;5074388;28;20181;-70
2022/03/30 07:46:18;;;;;;;2.23;1.17;;;21.20;99.90;;;;;;5074497;28;20238;-70
2022/03/30 07:48:50;;;;;;;1.40;1.17;;;21.20;99.90;;;;;;5074288;28;20176;-72
2022/03/30 07:51:17;;;;;;;4.23;1.13;;;21.20;99.90;;;;;;5074299;28;20701;-70
2022/03/30 07:53:45;;;;;;;1.60;1.10;;;21.10;99.90;;;;;;5074383;28;20186;-71
2022/03/30 07:56:14;;;;;;;1.47;1.30;;;21.10;99.90;;;;;;5074205;28;20168;-71
2022/03/30 07:58:42;;;;;;;1.70;1.23;;;21.10;99.90;;;;;;5074086;28;20634;-71
2022/03/30 08:01:11;;;;;;;1.90;1.30;;;21.10;99.90;;;;;;5072876;28;20188;-70
2022/03/30 08:03:38;;;;;;;3.57;1.40;;;21.10;99.90;;;;;;5074345;28;20181;-70
2022/03/30 08:06:18;;;;;;;2.57;1.30;;;21.20;99.90;;;;;;5074121;28;20172;-69
2022/03/30 08:08:46;;;;;;;1.77;1.30;;;21.20;99.90;;;;;;5074133;28;20265;-71
2022/03/30 08:11:14;;;;;;;1.60;1.10;;;21.20;99.90;;;;;;5073941;28;20272;-71
2022/03/30 08:13:41;;;;;;;2.70;1.13;;;21.20;99.90;;;;;;5072306;28;20702;-70
2022/03/30 08:16:09;;;;;;;1.90;0.90;;;21.30;99.90;;;;;;5074110;28;20222;-70
2022/03/30 08:18:37;;;;;;;2.33;1.60;;;21.30;99.90;;;;;;5073766;28;20215;-70
2022/03/30 08:23:50;;;;;;;2.60;1.30;;;21.20;99.90;;;;;;5074321;28;20186;-70
2022/03/30 08:26:20;;;;;;;1.67;0.90;;;21.20;99.90;;;;;;5073597;28;20189;-70
2022/03/30 08:28:48;;;;;;;2.10;0.93;;;21.20;99.90;;;;;;5073551;28;20837;-70
2022/03/30 08:31:18;;;;;;;2.90;0.70;;;21.10;99.90;;;;;;5074854;28;20188;-70
2022/03/30 08:33:49;;;;;;;1.17;0.60;;;21.00;99.90;;;;;;5074245;28;20172;-70
2022/03/30 08:36:16;;;;;;;1.23;0.60;;;20.90;99.90;;;;;;5074111;28;20188;-71
2022/03/30 08:38:45;;;;;;;1.23;0.60;;;20.80;99.90;;;;;;5073966;28;20239;-70
2022/03/30 08:41:13;;;;;;;0.70;0.63;;;20.70;99.90;;;;;;5074433;28;20635;-70
2022/03/30 08:43:41;;;;;;;0.50;0.50;;;20.80;99.90;;;;;;5073917;28;20176;-70
2022/03/30 08:46:09;;;;;;;1.83;0.70;;;20.70;99.90;;;;;;5073928;28;20647;-72
2022/03/30 08:48:36;;;;;;;1.80;0.57;;;20.70;99.90;;;;;;5072604;28;20634;-71
2022/03/30 08:51:08;;;;;;;0.63;0.50;;;20.60;99.90;;;;;;5073179;28;20184;-70
2022/03/30 08:53:36;;;;;;;1.30;0.70;;;20.70;99.90;;;;;;5073434;28;20179;-69
2022/03/30 08:56:04;;;;;;;2.33;0.80;;;20.60;99.90;;;;;;5073366;28;20190;-70
2022/03/30 08:58:32;;;;;;;1.07;0.90;;;20.70;99.90;;;;;;5073190;28;20661;-71
2022/03/30 09:01:13;;;;;;;1.30;0.80;;;20.70;99.90;;;;;;5073202;28;20184;-70
2022/03/30 09:04:03;;;;;;;1.17;0.63;;;20.60;99.90;;;;;;5073505;28;20630;-72
2022/03/30 09:06:38;;;;;;;0.50;0.50;;;20.60;99.90;;;;;;5072282;28;20267;-70
2022/03/30 09:09:06;;;;;;;2.20;0.90;;;20.60;99.90;;;;;;5072997;28;20587;-69
2022/03/30 09:11:45;;;;;;;0.60;0.60;;;20.60;99.90;;;;;;5073230;28;20555;-69
2022/03/30 09:14:13;;;;;;;0.70;0.70;;;20.60;99.90;;;;;;5073057;28;20221;-70
2022/03/30 09:16:47;;;;;;;0.93;0.73;;;20.50;99.90;;;;;;5073383;28;20564;-70
2022/03/30 09:19:17;;;;;;;2.30;0.70;;;20.50;99.90;;;;;;5073051;28;20210;-70
2022/03/30 09:21:59;;;;;;;2.90;0.80;;;20.50;99.90;;;;;;5072986;28;20176;-70
2022/03/30 09:24:30;;;;;;;1.10;0.60;;;20.50;99.90;;;;;;5073177;28;20176;-70
2022/03/30 09:26:59;;;;;;;1.20;0.70;;;20.40;99.90;;;;;;5073023;28;20184;-71
2022/03/30 09:29:29;;;;;;;0.80;0.70;;;20.20;99.90;;;;;;5072742;28;20184;-69
2022/03/30 09:32:04;;;;;;;1.10;0.90;;;20.00;99.90;;;;;;5071516;28;20649;-71
2022/03/30 09:34:46;;;;;;;3.47;1.10;;;19.90;99.90;;;;;;5071604;28;20671;-71
2022/03/30 09:37:13;;;;;;;1.00;0.90;;;19.80;99.90;;;;;;5072801;28;20180;-71
2022/03/30 09:39:43;;;;;;;1.40;0.80;;;19.70;99.90;;;;;;5072323;28;20188;-72
2022/03/30 09:42:11;;;;;;;1.73;0.70;;;19.60;99.90;;;;;;5073356;28;20183;-70
2022/03/30 09:44:53;;;;;;;0.70;0.63;;;19.50;99.90;;;;;;5072384;28;20217;-70
2022/03/30 09:47:23;;;;;;;2.40;1.20;;;19.50;99.90;;;;;;5072047;28;20187;-72
2022/03/30 09:49:59;;;;;;;1.10;1.00;;;19.40;99.90;;;;;;5072531;28;20180;-71
2022/03/30 09:52:33;;;;;;;1.70;1.30;;;19.40;99.90;;;;;;5072187;28;20278;-69
2022/03/30 09:55:04;;;;;;;2.00;1.30;;;19.40;99.90;;;;;;5070527;28;20191;-70
2022/03/30 09:57:50;;;;;;;2.40;1.07;;;19.50;99.90;;;;;;5072920;28;20206;-71
2022/03/30 10:00:19;;;;;;;3.63;1.13;;;19.50;99.90;;;;;;5073840;28;20253;-71
2022/03/30 10:02:51;;;;;;;1.00;0.90;;;19.50;99.90;;;;;;5076141;28;20168;-70
2022/03/30 10:05:25;;;;;;;1.33;1.07;;;19.50;99.90;;;;;;5063857;28;20198;-71
2022/03/30 10:07:55;;;;;;;1.27;1.00;;;19.50;99.90;;;;;;5083504;28;20195;-71
2022/03/30 10:10:22;;;;;;;2.63;1.20;;;19.50;99.90;;;;;;5076584;28;20543;-71
2022/03/30 10:12:50;;;;;;;2.57;1.00;;;19.50;99.90;;;;;;5076637;28;20226;-71
2022/03/30 10:15:20;;;;;;;2.70;1.07;;;19.50;99.90;;;;;;5076666;28;20318;-71
2022/03/30 10:17:47;;;;;;;3.70;1.17;;;19.50;99.90;;;;;;5076101;28;20215;-69
2022/03/30 10:20:22;;;;;;;1.40;1.10;;;19.50;99.90;;;;;;5076174;28;20172;-71
2022/03/30 10:23:24;;;;;;;4.30;1.93;;;19.60;99.90;;;;;;5076188;28;20266;-70
2022/03/30 10:25:58;;;;;;;1.83;0.87;;;19.60;99.90;;;;;;5076132;28;20169;-70
2022/03/30 10:28:43;;;;;;;2.03;1.13;;;19.60;99.90;;;;;;5076767;28;20173;-72
2022/03/30 10:31:12;;;;;;;1.00;0.90;;;19.50;99.90;;;;;;5076291;28;20178;-71
2022/03/30 10:33:44;;;;;;;1.40;1.20;;;19.50;99.90;;;;;;5075771;28;20266;-71
2022/03/30 10:36:32;;;;;;;1.03;0.97;;;19.50;99.90;;;;;;5075872;28;20257;-71
2022/03/30 10:39:17;;;;;;;1.03;0.93;;;19.50;99.90;;;;;;5075956;28;20217;-71
2022/03/30 10:41:55;;;;;;;1.63;1.00;;;19.60;99.90;;;;;;5076428;28;20172;-70
2022/03/30 10:44:47;;;;;;;1.83;1.00;;;19.50;99.90;;;;;;5075980;28;20175;-70
2022/03/30 10:47:26;;;;;;;1.23;0.93;;;19.60;99.90;;;;;;5071085;28;20681;-71
2022/03/30 10:50:03;;;;;;;3.77;1.00;;;19.60;99.90;;;;;;5075542;28;20628;-72
2022/03/30 10:52:39;;;;;;;1.47;1.00;;;19.60;99.90;;;;;;5075702;28;20180;-71
2022/03/30 10:58:28;;;;;;;1.57;1.10;;;19.70;99.90;;;;;;5075527;28;20272;-69
2022/03/30 11:01:14;;;;;;;4.27;1.30;;;19.70;99.90;;;;;;5075254;28;20693;-68
2022/03/30 11:04:02;;;;;;;3.37;1.33;;;19.60;99.90;;;;;;5075337;28;20183;-71
2022/03/30 11:06:31;;;;;;;2.50;1.33;;;19.50;99.90;;;;;;5075831;28;20168;-70
2022/03/30 11:09:01;;;;;;;5.90;1.50;;;19.40;99.90;;;;;;5075160;28;20167;-70
2022/03/30 11:11:39;;;;;;;1.90;1.20;;;19.40;99.90;;;;;;5075043;28;20180;-70
2022/03/30 11:14:33;;;;;;;1.87;1.70;;;19.30;99.90;;;;;;5076549;28;20223;-69
2022/03/30 11:17:13;;;;;;;3.03;1.60;;;19.30;99.90;;;;;;5075599;28;20591;-70
2022/03/30 11:19:50;;;;;;;2.03;1.77;;;19.30;99.90;;;;;;5075522;28;20320;-69
2022/03/30 11:22:23;;;;;;;4.20;1.90;;;19.20;99.90;;;;;;5075284;28;20168;-70
2022/03/30 11:25:23;;;;;;;4.23;1.90;;;19.20;99.90;;;;;;5075376;28;20830;-70
2022/03/30 11:28:01;;;;;;;2.97;1.60;;;19.20;99.90;;;;;;5074958;28;20176;-69
2022/03/30 11:30:31;;;;;;;4.30;2.17;;;19.30;99.90;;;;;;5074731;28;20171;-71
2022/03/30 11:33:06;;;;;;;3.83;1.80;;;19.30;99.90;;;;;;5074617;28;20262;-70
2022/03/30 11:35:39;;;;;;;3.80;2.43;;;19.30;99.90;;;;;;5074708;28;20168;-70
2022/03/30 11:38:09;;;;;;;5.07;2.77;;;19.30;99.90;;;;;;5074427;28;20231;-69
2022/03/30 11:40:41;;;;;;;2.50;2.13;;;19.30;99.90;;;;;;5074661;28;20246;-69
2022/03/30 11:43:10;;;;;;;3.53;2.20;;;19.20;99.90;;;;;;5074491;28;20176;-69
2022/03/30 11:45:39;;;;;;;3.07;2.23;;;19.20;99.90;;;;;;5074331;28;20210;-68
2022/03/30 11:48:10;;;;;;;2.97;2.60;;;19.20;99.90;;;;;;5074399;28;20645;-69
2022/03/30 11:50:47;;;;;;;5.77;2.97;;;19.20;99.90;;;;;;5074397;28;20183;-70
2022/03/30 11:53:23;;;;;;;6.13;3.40;;;19.10;99.90;;;;;;5074378;28;20652;-69
2022/03/30 11:56:05;;;;;;;6.80;3.80;;;19.20;99.90;;;;;;5074335;28;20180;-70
2022/03/30 11:58:45;;;;;;;5.70;3.60;;;19.10;99.90;;;;;;5071626;28;20237;-70
2022/03/30 12:01:16;;;;;;;5.67;4.03;;;19.10;99.90;;;;;;5054216;28;20219;-69
2022/03/30 12:03:44;;;;;;;6.00;3.90;;;19.00;99.90;;;;;;5054315;28;20264;-70
2022/03/30 12:06:13;;;;;;;7.13;3.97;;;18.90;99.90;;;;;;5052638;28;20184;-70
2022/03/30 12:08:52;;;;;;;4.77;3.53;;;18.90;99.90;;;;;;5053968;28;20177;-70
2022/03/30 12:11:22;;;;;;;5.57;3.80;;;18.90;99.90;;;;;;5053846;28;20514;-70
2022/03/30 12:13:59;;;;;;;5.33;3.00;;;18.90;99.90;;;;;;5052637;28;20648;-70
2022/03/30 12:16:27;;;;;;;7.17;3.40;;;18.80;99.90;;;;;;5054411;28;20691;-69
2022/03/30 12:18:59;;;;;;;5.73;3.70;;;18.90;99.90;;;;;;5053686;28;20208;-69
2022/03/30 12:21:29;;;;;;;6.33;3.47;;;18.80;99.90;;;;;;5054015;28;20690;-69
2022/03/30 12:24:06;;;;;;;7.33;3.47;;;18.80;99.90;;;;;;5054575;28;20646;-69
2022/03/30 12:26:34;;;;;;;4.83;3.40;;;18.70;99.90;;;;;;5053325;28;20214;-70
2022/03/30 12:29:11;;;;;;;4.67;3.23;;;18.70;99.90;;;;;;5054757;28;20687;-70
2022/03/30 12:31:44;;;;;;;6.57;3.20;;;18.70;99.90;;;;;;5054564;28;20185;-69
2022/03/30 12:34:13;;;;;;;4.63;3.20;;;18.70;99.90;;;;;;5055227;28;20241;-69
2022/03/30 12:36:47;;;;;;;5.73;3.50;;;18.70;99.90;;;;;;5054837;28;20211;-69
2022/03/30 12:39:25;;;;;;;5.90;3.60;;;18.70;99.90;;;;;;5053536;28;20354;-70
2022/03/30 12:42:23;;;;;;;6.13;3.70;;;18.70;99.90;;;;;;5053596;28;20176;-70
2022/03/30 12:45:10;;;;;;;6.27;3.60;;;18.70;99.90;;;;;;5071027;28;20198;-69
2022/03/30 12:47:47;;;;;;;5.53;3.13;;;18.80;99.90;;;;;;5071805;28;20346;-69
2022/03/30 12:50:23;;;;;;;5.77;3.17;;;18.80;99.90;;;;;;5071356;28;20609;-69
2022/03/30 12:52:53;;;;;;;7.50;3.33;;;18.80;99.90;;;;;;5073881;28;20171;-69
2022/03/30 12:55:28;;;;;;;5.33;3.17;;;18.80;99.90;;;;;;5073911;28;20530;-69
2022/03/30 12:57:59;;;;;;;5.87;3.53;;;18.80;99.90;;;;;;5073352;28;20210;-70
2022/03/30 13:00:38;;;;;;;7.50;3.40;;;18.80;99.90;;;;;;5073071;28;20274;-69
2022/03/30 13:03:24;;;;;;;4.90;3.27;;;18.80;99.90;;;;;;5073560;28;20203;-70
2022/03/30 13:06:18;;;;;;;7.33;3.40;;;18.80;99.90;;;;;;5073590;28;20195;-71
2022/03/30 13:09:14;;;;;;;4.00;3.40;;;18.80;99.90;;;;;;5073812;28;20512;-68
2022/03/30 13:11:45;;;;;;;5.10;3.23;;;18.80;99.90;;;;;;5073069;28;20175;-70
2022/03/30 13:14:21;;;;;;;4.33;2.43;;;18.90;99.90;;;;;;5072918;28;20231;-70
2022/03/30 13:17:01;;;;;;;3.53;2.60;;;18.90;99.90;;;;;;5072967;28;20187;-70
2022/03/30 13:19:29;;;;;;;4.97;2.73;;;18.90;99.90;;;;;;5072701;28;20341;-70
2022/03/30 13:21:59;;;;;;;4.50;2.50;;;18.90;99.90;;;;;;5072091;28;20633;-69